Time;durP1;ratioP1;P1;durP2;ratioP2;P2;SDS_P1;SDS_P2;PMS_P1;PMS_P2;Temp;Humidity;BMP_temperature;BMP_pressure;BME280_temperature;BME280_humidity;BME280_pressure;Samples;Min_cycle;Max_cycle;Signal;HPM_P1;HPM_P2
2022/03/19 00:01:03;;;;;;;13.90;9.55;;;9.00;99.90;;;;;;5078215;28;20077;-84
2022/03/19 00:03:29;;;;;;;15.50;10.20;;;9.10;99.90;;;;;;5081606;28;20107;-84
2022/03/19 00:05:56;;;;;;;14.55;9.30;;;9.10;99.90;;;;;;5078456;28;20517;-84
2022/03/19 00:08:22;;;;;;;13.70;8.65;;;9.10;99.90;;;;;;5077115;28;20576;-84
2022/03/19 00:10:48;;;;;;;15.20;10.50;;;9.00;99.90;;;;;;5081496;28;20042;-84
2022/03/19 00:13:14;;;;;;;13.00;9.95;;;9.00;99.90;;;;;;5072911;28;20544;-84
2022/03/19 00:15:41;;;;;;;18.65;10.73;;;9.00;99.90;;;;;;5085339;28;20030;-84
2022/03/19 00:18:07;;;;;;;14.77;9.50;;;9.00;99.90;;;;;;5089708;28;20080;-84
2022/03/19 00:20:35;;;;;;;12.85;9.38;;;8.90;99.90;;;;;;5083754;28;20012;-84
2022/03/19 00:23:01;;;;;;;12.60;9.15;;;8.90;99.90;;;;;;5088246;28;20021;-84
2022/03/19 00:25:27;;;;;;;14.65;9.18;;;8.80;99.90;;;;;;5071734;28;20497;-84
2022/03/19 00:27:52;;;;;;;15.77;9.10;;;8.80;99.90;;;;;;5077399;28;20118;-84
2022/03/19 00:30:18;;;;;;;15.65;10.13;;;8.70;99.90;;;;;;5088429;28;20028;-84
2022/03/19 00:32:44;;;;;;;12.98;8.75;;;8.70;99.90;;;;;;5085948;28;20115;-84
2022/03/19 00:35:10;;;;;;;11.98;8.25;;;8.80;99.90;;;;;;5092041;28;20509;-84
2022/03/19 00:37:44;;;;;;;12.18;8.63;;;8.70;99.90;;;;;;5094948;28;20099;-84
2022/03/19 00:40:11;;;;;;;12.02;8.57;;;8.80;99.90;;;;;;5088341;28;20031;-84
2022/03/19 00:42:37;;;;;;;11.77;8.68;;;8.80;99.90;;;;;;5088463;28;20016;-84
2022/03/19 00:45:03;;;;;;;11.52;8.00;;;8.80;99.90;;;;;;5083868;28;20560;-84
2022/03/19 00:47:29;;;;;;;14.98;8.82;;;8.80;99.90;;;;;;5093496;28;20059;-84
2022/03/19 00:49:54;;;;;;;15.82;8.48;;;8.80;99.90;;;;;;5087128;28;20114;-84
2022/03/19 00:52:20;;;;;;;13.75;8.35;;;8.90;99.90;;;;;;5094503;28;20603;-84
2022/03/19 00:54:46;;;;;;;10.43;8.00;;;9.00;99.90;;;;;;5087703;28;20447;-84
2022/03/19 00:57:11;;;;;;;11.10;7.80;;;9.00;99.90;;;;;;5093592;28;20378;-84
2022/03/19 00:59:37;;;;;;;12.48;7.97;;;9.00;99.90;;;;;;5086816;28;20399;-84
2022/03/19 01:02:03;;;;;;;11.75;7.07;;;9.10;99.90;;;;;;5092171;28;20051;-84
2022/03/19 01:04:29;;;;;;;11.90;7.82;;;9.10;99.90;;;;;;5094734;28;20020;-84
2022/03/19 01:06:54;;;;;;;11.82;7.40;;;9.20;99.90;;;;;;5092853;28;20062;-84
2022/03/19 01:09:20;;;;;;;12.60;8.02;;;9.10;99.90;;;;;;5092091;28;20024;-83
2022/03/19 01:11:46;;;;;;;16.95;7.90;;;9.30;99.90;;;;;;5087933;28;20190;-84
2022/03/19 01:14:12;;;;;;;15.93;8.25;;;9.30;99.90;;;;;;5093457;28;20036;-83
2022/03/19 01:16:38;;;;;;;14.57;9.02;;;9.20;99.90;;;;;;5094367;28;20012;-84
2022/03/19 01:19:04;;;;;;;14.93;8.57;;;9.10;99.90;;;;;;5091473;28;20572;-83
2022/03/19 01:51:29;;;;;;;16.58;10.35;;;9.90;99.90;;;;;;5083833;28;20031;-85
2022/03/19 01:53:54;;;;;;;19.95;11.07;;;10.00;99.90;;;;;;5088061;28;20016;-83
2022/03/19 01:56:20;;;;;;;20.67;11.27;;;10.10;99.90;;;;;;5075078;28;20032;-83
2022/03/19 01:58:46;;;;;;;20.95;11.32;;;10.10;99.90;;;;;;5073473;28;20024;-83
2022/03/19 02:01:12;;;;;;;21.35;12.73;;;10.10;99.90;;;;;;5090037;28;20031;-83
2022/03/19 02:03:38;;;;;;;18.30;12.23;;;10.10;99.90;;;;;;5079871;28;20103;-84
2022/03/19 02:06:04;;;;;;;19.35;11.77;;;10.10;99.90;;;;;;5080045;28;20550;-84
2022/03/19 02:08:30;;;;;;;18.42;11.35;;;10.00;99.90;;;;;;5089469;28;20020;-83
2022/03/19 02:10:56;;;;;;;17.80;10.98;;;10.00;99.90;;;;;;5089674;28;20043;-84
2022/03/19 02:13:22;;;;;;;15.10;10.15;;;10.00;99.90;;;;;;5075245;28;20024;-83
2022/03/19 02:15:47;;;;;;;19.70;11.27;;;10.00;99.90;;;;;;5074737;28;20025;-82
2022/03/19 02:18:13;;;;;;;21.27;11.43;;;10.00;99.90;;;;;;5081107;28;20020;-83
2022/03/19 02:20:39;;;;;;;22.00;11.05;;;10.20;99.90;;;;;;5087811;28;20103;-83
2022/03/19 02:25:49;;;;;;;22.27;10.93;;;10.20;99.90;;;;;;5072927;28;20047;-83
2022/03/19 02:28:15;;;;;;;22.08;11.13;;;10.20;99.90;;;;;;5092364;28;20028;-83
2022/03/19 02:30:43;;;;;;;22.73;10.93;;;10.20;99.90;;;;;;5083621;28;20409;-83
2022/03/19 02:33:09;;;;;;;23.23;12.95;;;10.20;99.90;;;;;;5091796;28;20043;-83
2022/03/19 02:35:35;;;;;;;28.67;11.98;;;10.20;99.90;;;;;;5085228;28;20029;-83
2022/03/19 02:38:01;;;;;;;22.10;11.88;;;10.20;99.90;;;;;;5088377;28;20020;-83
2022/03/19 02:40:26;;;;;;;21.90;10.55;;;10.20;99.90;;;;;;5086174;28;20031;-83
2022/03/19 02:42:54;;;;;;;18.15;11.13;;;10.10;99.90;;;;;;5091500;28;20489;-83
2022/03/19 02:45:24;;;;;;;21.00;11.45;;;10.10;99.90;;;;;;5091453;28;20028;-83
2022/03/19 02:48:00;;;;;;;15.10;10.48;;;10.10;99.90;;;;;;5091358;28;20024;-83
2022/03/19 02:50:27;;;;;;;17.98;10.52;;;10.00;99.90;;;;;;5083362;28;20039;-83
2022/03/19 02:52:53;;;;;;;21.50;11.35;;;10.00;99.90;;;;;;5091344;28;20044;-83
2022/03/19 02:55:19;;;;;;;21.85;12.10;;;10.00;99.90;;;;;;5090976;28;20098;-83
2022/03/19 02:57:45;;;;;;;25.52;13.10;;;10.00;99.90;;;;;;5076484;28;20016;-83
2022/03/19 03:00:11;;;;;;;25.77;11.60;;;9.90;99.90;;;;;;5082801;28;20383;-83
2022/03/19 03:02:37;;;;;;;24.63;12.55;;;9.90;99.90;;;;;;5090036;28;20579;-83
2022/03/19 03:05:03;;;;;;;20.25;11.27;;;10.00;99.90;;;;;;5089737;28;20371;-82
2022/03/19 03:07:28;;;;;;;21.95;10.70;;;9.90;99.90;;;;;;5090619;28;20020;-83
2022/03/19 03:09:54;;;;;;;25.70;11.32;;;9.80;99.90;;;;;;5090948;28;20023;-83
2022/03/19 03:12:20;;;;;;;23.02;11.07;;;9.80;99.90;;;;;;5091000;28;20494;-83
2022/03/19 03:14:45;;;;;;;18.80;11.27;;;9.70;99.90;;;;;;5090972;28;20051;-83
2022/03/19 03:17:11;;;;;;;18.65;10.15;;;9.70;99.90;;;;;;5074834;28;20501;-82
2022/03/19 03:19:37;;;;;;;21.10;10.80;;;9.60;99.90;;;;;;5091647;28;20460;-82
2022/03/19 03:22:03;;;;;;;23.50;11.60;;;9.70;99.90;;;;;;5090793;28;20047;-83
2022/03/19 03:24:29;;;;;;;25.40;10.98;;;9.70;99.90;;;;;;5085910;28;20034;-83
2022/03/19 03:26:55;;;;;;;23.25;11.82;;;9.60;99.90;;;;;;5090549;28;20047;-83
2022/03/19 03:29:20;;;;;;;25.15;10.95;;;9.60;99.90;;;;;;5085083;28;20032;-83
2022/03/19 03:31:46;;;;;;;23.52;11.23;;;9.60;99.90;;;;;;5087766;28;20020;-83
2022/03/19 03:34:12;;;;;;;18.17;10.48;;;9.60;99.90;;;;;;5090629;28;20028;-83
2022/03/19 03:36:38;;;;;;;23.40;11.07;;;9.60;99.90;;;;;;5084654;28;20397;-83
2022/03/19 03:39:04;;;;;;;17.20;10.27;;;9.50;99.90;;;;;;5089131;28;20036;-83
2022/03/19 03:41:30;;;;;;;19.25;11.57;;;9.50;99.90;;;;;;5089265;28;20023;-83
2022/03/19 03:43:55;;;;;;;21.83;11.20;;;9.60;99.90;;;;;;5089500;28;20020;-83
2022/03/19 03:46:21;;;;;;;22.63;14.25;;;9.60;99.90;;;;;;5091321;28;20055;-83
2022/03/19 03:48:47;;;;;;;22.60;11.15;;;9.60;99.90;;;;;;5077369;28;20401;-83
2022/03/19 03:51:13;;;;;;;20.83;12.23;;;9.50;99.90;;;;;;5088553;28;20059;-82
2022/03/19 03:53:39;;;;;;;19.20;11.90;;;9.50;99.90;;;;;;5090239;28;20031;-82
2022/03/19 03:56:07;;;;;;;23.17;11.27;;;9.50;99.90;;;;;;5090065;28;20024;-83
2022/03/19 03:58:33;;;;;;;21.85;11.43;;;9.50;99.90;;;;;;5090004;28;20028;-83
2022/03/19 04:00:58;;;;;;;22.48;11.73;;;9.50;99.90;;;;;;5081272;28;20023;-82
2022/03/19 04:03:25;;;;;;;17.45;11.43;;;9.60;99.90;;;;;;5089844;28;20024;-83
2022/03/19 04:05:51;;;;;;;27.90;13.50;;;9.60;99.90;;;;;;5090094;28;20069;-81
2022/03/19 04:08:16;;;;;;;25.20;14.15;;;9.70;99.90;;;;;;5089681;28;20028;-81
2022/03/19 04:10:42;;;;;;;23.33;12.90;;;9.60;99.90;;;;;;5090751;28;20441;-81
2022/03/19 04:13:08;;;;;;;25.90;12.82;;;9.60;99.90;;;;;;5081508;28;20097;-81
2022/03/19 04:15:34;;;;;;;30.08;14.43;;;9.60;99.90;;;;;;5088179;28;20497;-81
2022/03/19 04:18:01;;;;;;;26.65;13.60;;;9.50;99.90;;;;;;5088742;28;20073;-81
2022/03/19 04:20:28;;;;;;;19.52;13.23;;;9.50;99.90;;;;;;5088768;28;20020;-81
2022/03/19 04:22:53;;;;;;;25.85;13.10;;;9.50;99.90;;;;;;5087922;28;20020;-81
2022/03/19 04:25:24;;;;;;;22.63;13.40;;;9.50;99.90;;;;;;5083196;28;20062;-81
2022/03/19 04:27:53;;;;;;;26.30;13.75;;;9.50;99.90;;;;;;5088994;28;20545;-81
2022/03/19 04:30:20;;;;;;;29.13;14.07;;;9.50;99.90;;;;;;5089561;28;20054;-81
2022/03/19 04:32:54;;;;;;;29.67;14.38;;;9.50;99.90;;;;;;5088181;28;20050;-81
2022/03/19 04:38:08;;;;;;;27.50;14.13;;;9.40;99.90;;;;;;5089618;28;20039;-81
2022/03/19 04:40:35;;;;;;;34.40;15.25;;;9.40;99.90;;;;;;5089575;28;20028;-81
2022/03/19 04:43:02;;;;;;;25.83;13.82;;;9.40;99.90;;;;;;5089712;28;20020;-81
2022/03/19 04:45:28;;;;;;;32.45;16.13;;;9.30;99.90;;;;;;5089666;28;20075;-81
2022/03/19 04:47:54;;;;;;;26.88;14.88;;;9.30;99.90;;;;;;5089358;28;20509;-81
2022/03/19 04:50:20;;;;;;;29.15;16.13;;;9.40;99.90;;;;;;5082260;28;20032;-81
2022/03/19 04:52:47;;;;;;;26.20;15.27;;;9.40;99.90;;;;;;5090778;28;20070;-81
2022/03/19 04:55:13;;;;;;;34.60;17.65;;;9.40;99.90;;;;;;5070198;28;20051;-81
2022/03/19 04:57:39;;;;;;;35.88;18.95;;;9.40;99.90;;;;;;5084886;28;20493;-81
2022/03/19 05:00:07;;;;;;;31.65;17.38;;;9.40;99.90;;;;;;5084244;28;20052;-81
2022/03/19 05:02:33;;;;;;;31.85;16.45;;;9.40;99.90;;;;;;5089422;28;20024;-81
2022/03/19 05:05:00;;;;;;;30.95;15.90;;;9.30;99.90;;;;;;5089675;28;20098;-81
2022/03/19 05:07:27;;;;;;;33.97;19.27;;;9.30;99.90;;;;;;5089921;28;20032;-81
2022/03/19 05:12:40;;;;;;;31.98;17.60;;;9.30;99.90;;;;;;5089427;28;20035;-81
2022/03/19 05:15:10;;;;;;;31.98;17.65;;;9.20;99.90;;;;;;5088899;28;20495;-81
2022/03/19 05:17:35;;;;;;;32.17;16.60;;;9.20;99.90;;;;;;5088306;28;20046;-82
2022/03/19 05:20:01;;;;;;;29.33;16.83;;;9.20;99.90;;;;;;5090185;28;20021;-82
2022/03/19 05:22:29;;;;;;;34.53;16.98;;;9.20;99.90;;;;;;5094078;28;20056;-82
2022/03/19 05:24:59;;;;;;;29.77;16.13;;;9.30;99.90;;;;;;5092721;28;20114;-82
2022/03/19 05:27:25;;;;;;;29.05;16.75;;;9.20;99.90;;;;;;5092850;28;20036;-82
2022/03/19 05:29:51;;;;;;;29.17;15.68;;;9.20;99.90;;;;;;5093047;28;20094;-81
2022/03/19 05:32:19;;;;;;;29.60;15.82;;;9.20;99.90;;;;;;5088017;28;20611;-82
2022/03/19 05:34:45;;;;;;;26.25;15.13;;;9.20;99.90;;;;;;5089839;28;20059;-82
2022/03/19 05:37:11;;;;;;;29.23;15.27;;;9.20;99.90;;;;;;5088573;28;20493;-82
2022/03/19 05:39:37;;;;;;;27.42;15.70;;;9.20;99.90;;;;;;5087427;28;20047;-81
2022/03/19 05:42:04;;;;;;;33.13;15.95;;;9.20;99.90;;;;;;5082858;28;20071;-82
2022/03/19 05:44:31;;;;;;;27.80;15.77;;;9.10;99.90;;;;;;5085728;28;20107;-82
2022/03/19 05:46:58;;;;;;;29.50;15.27;;;9.10;99.90;;;;;;5089749;28;20111;-82
2022/03/19 05:49:24;;;;;;;29.00;15.95;;;9.10;99.90;;;;;;5087403;28;20047;-80
2022/03/19 05:51:50;;;;;;;29.90;14.43;;;9.10;99.90;;;;;;5088391;28;20044;-81
2022/03/19 05:54:16;;;;;;;26.83;14.57;;;9.10;99.90;;;;;;5091355;28;20028;-81
2022/03/19 05:56:42;;;;;;;27.80;16.38;;;9.10;99.90;;;;;;5091263;28;20551;-81
2022/03/19 05:59:07;;;;;;;30.08;15.75;;;9.10;99.90;;;;;;5088351;28;20511;-81
2022/03/19 06:01:35;;;;;;;28.77;15.23;;;9.10;99.90;;;;;;5087800;28;20047;-81
2022/03/19 06:04:01;;;;;;;28.52;14.43;;;9.10;99.90;;;;;;5091330;28;20027;-80
2022/03/19 06:06:27;;;;;;;28.85;15.95;;;9.10;99.90;;;;;;5091951;28;20028;-80
2022/03/19 06:08:53;;;;;;;28.33;15.20;;;9.10;99.90;;;;;;5090759;28;20051;-81
2022/03/19 06:11:19;;;;;;;34.22;17.13;;;9.00;99.90;;;;;;5091023;28;20116;-81
2022/03/19 06:13:45;;;;;;;31.67;15.82;;;9.10;99.90;;;;;;5093443;28;20166;-81
2022/03/19 06:16:11;;;;;;;35.60;15.75;;;9.10;99.90;;;;;;5091794;28;20039;-80
2022/03/19 06:18:37;;;;;;;30.15;17.10;;;9.20;99.90;;;;;;5086851;28;20497;-81
2022/03/19 06:21:03;;;;;;;28.48;14.05;;;9.20;99.90;;;;;;5091844;28;20028;-81
2022/03/19 06:23:30;;;;;;;27.35;15.40;;;9.20;99.90;;;;;;5086280;28;20044;-81
2022/03/19 06:25:56;;;;;;;30.42;15.75;;;9.20;99.90;;;;;;5088752;28;20034;-81
2022/03/19 06:28:21;;;;;;;30.80;15.18;;;9.20;99.90;;;;;;5092748;28;20073;-81
2022/03/19 06:30:48;;;;;;;28.38;14.32;;;9.20;99.90;;;;;;5083248;28;20028;-81
2022/03/19 06:33:14;;;;;;;27.52;16.35;;;9.30;99.90;;;;;;5090596;28;20485;-81
2022/03/19 06:38:28;;;;;;;23.38;13.40;;;9.20;99.90;;;;;;5076998;28;20027;-81
2022/03/19 06:40:54;;;;;;;25.50;13.23;;;9.30;99.90;;;;;;5091674;28;20032;-81
2022/03/19 06:43:21;;;;;;;25.40;14.02;;;9.40;99.90;;;;;;5091212;28;20111;-81
2022/03/19 06:45:47;;;;;;;28.02;15.05;;;9.40;99.90;;;;;;5091388;28;20063;-81
2022/03/19 06:48:12;;;;;;;26.80;13.23;;;9.50;99.90;;;;;;5086766;28;20105;-81
2022/03/19 06:50:38;;;;;;;29.38;13.38;;;9.50;99.90;;;;;;5084432;28;20027;-81
2022/03/19 06:53:04;;;;;;;31.30;13.43;;;9.60;99.90;;;;;;5087439;28;20146;-81
2022/03/19 06:55:32;;;;;;;30.50;14.23;;;9.60;99.90;;;;;;5072391;28;20032;-81
2022/03/19 06:57:58;;;;;;;27.00;13.15;;;9.70;99.90;;;;;;5089039;28;20016;-81
2022/03/19 07:00:24;;;;;;;26.90;13.52;;;9.70;99.90;;;;;;5090953;28;20035;-81
2022/03/19 07:02:52;;;;;;;26.77;12.60;;;9.90;99.90;;;;;;5089614;28;20024;-81
2022/03/19 07:05:25;;;;;;;26.10;12.27;;;9.90;99.90;;;;;;5089791;28;20056;-81
2022/03/19 07:07:53;;;;;;;25.05;12.60;;;10.10;99.90;;;;;;5090205;28;20027;-81
2022/03/19 07:10:19;;;;;;;22.35;12.02;;;10.40;99.90;;;;;;5084261;28;20028;-81
2022/03/19 07:12:45;;;;;;;28.40;13.30;;;10.60;99.90;;;;;;5082282;28;20069;-81
2022/03/19 07:15:19;;;;;;;22.77;12.00;;;10.70;99.90;;;;;;5085641;28;20058;-81
2022/03/19 07:17:46;;;;;;;29.10;12.40;;;11.10;99.90;;;;;;5091028;28;20012;-81
2022/03/19 07:20:14;;;;;;;24.25;12.82;;;12.10;99.90;;;;;;5086267;28;20075;-81
2022/03/19 07:22:58;;;;;;;24.67;12.07;;;12.60;99.90;;;;;;5087371;28;20068;-81
2022/03/19 07:25:26;;;;;;;27.08;12.18;;;13.20;99.90;;;;;;5084958;28;20032;-81
2022/03/19 07:27:54;;;;;;;22.40;12.15;;;13.20;99.90;;;;;;5090538;28;20089;-81
2022/03/19 07:30:21;;;;;;;31.17;13.10;;;13.60;99.90;;;;;;5081982;28;20079;-81
2022/03/19 07:32:46;;;;;;;22.23;11.85;;;13.50;99.90;;;;;;5089653;28;20048;-81
2022/03/19 07:35:13;;;;;;;25.00;13.38;;;13.50;99.90;;;;;;5090763;28;20071;-81
2022/03/19 07:37:41;;;;;;;25.98;12.43;;;13.40;99.90;;;;;;5091588;28;20020;-81
2022/03/19 07:40:08;;;;;;;24.20;12.23;;;14.10;99.90;;;;;;5088886;28;20047;-81
2022/03/19 07:42:35;;;;;;;22.63;11.73;;;14.00;99.90;;;;;;5090307;28;20016;-81
2022/03/19 07:45:02;;;;;;;20.65;12.05;;;13.90;99.90;;;;;;5089127;28;20032;-81
2022/03/19 07:47:31;;;;;;;20.20;11.82;;;14.40;99.90;;;;;;5085152;28;20130;-81
2022/03/19 07:49:57;;;;;;;23.88;11.73;;;14.10;99.90;;;;;;5081310;28;20036;-81
2022/03/19 07:52:24;;;;;;;20.63;11.82;;;13.60;99.90;;;;;;5090960;28;20063;-81
2022/03/19 07:54:54;;;;;;;20.50;11.00;;;13.50;99.90;;;;;;5081549;28;20100;-81
2022/03/19 07:57:20;;;;;;;20.50;12.25;;;14.00;99.90;;;;;;5090243;28;20039;-81
2022/03/19 07:59:46;;;;;;;23.13;11.10;;;14.30;99.90;;;;;;5089625;28;20501;-81
2022/03/19 08:02:11;;;;;;;24.88;12.38;;;13.50;99.90;;;;;;5088250;28;20028;-81
2022/03/19 08:04:37;;;;;;;22.42;11.05;;;13.90;99.90;;;;;;5091326;28;20024;-81
2022/03/19 08:07:03;;;;;;;26.38;12.93;;;14.10;99.90;;;;;;5089785;28;20043;-81
2022/03/19 08:09:29;;;;;;;28.77;12.05;;;13.70;99.90;;;;;;5089517;28;20024;-81
2022/03/19 08:11:55;;;;;;;20.38;11.43;;;13.50;99.90;;;;;;5088108;28;20109;-81
2022/03/19 08:14:21;;;;;;;25.23;12.20;;;13.90;99.90;;;;;;5089956;28;20024;-81
2022/03/19 08:16:47;;;;;;;21.85;11.90;;;14.10;99.90;;;;;;5089343;28;20027;-81
2022/03/19 08:19:13;;;;;;;28.40;12.70;;;14.20;99.90;;;;;;5082094;28;20020;-81
2022/03/19 08:21:44;;;;;;;23.08;11.73;;;14.20;99.90;;;;;;5087369;28;20023;-81
2022/03/19 08:24:10;;;;;;;23.25;11.05;;;14.50;99.90;;;;;;5087028;28;20028;-81
2022/03/19 08:26:36;;;;;;;22.77;11.73;;;14.20;99.90;;;;;;5076906;28;20074;-81
2022/03/19 08:29:03;;;;;;;18.73;11.45;;;13.90;99.90;;;;;;5090010;28;20059;-82
2022/03/19 08:31:29;;;;;;;22.25;11.57;;;14.20;99.90;;;;;;5089609;28;20028;-82
2022/03/19 08:33:56;;;;;;;20.65;11.02;;;14.90;99.90;;;;;;5089784;28;20127;-82
2022/03/19 08:36:22;;;;;;;20.60;12.05;;;15.10;99.90;;;;;;5089123;28;20563;-82
2022/03/19 08:41:32;;;;;;;25.30;12.75;;;14.00;99.90;;;;;;5088754;28;20047;-81
2022/03/19 08:43:58;;;;;;;21.40;12.63;;;13.90;99.90;;;;;;5089816;28;20490;-82
2022/03/19 08:46:25;;;;;;;21.08;11.43;;;14.60;99.90;;;;;;5090579;28;20565;-82
2022/03/19 08:48:51;;;;;;;26.10;11.80;;;14.50;99.90;;;;;;5089646;28;20082;-82
2022/03/19 08:54:03;;;;;;;21.60;11.57;;;14.20;99.90;;;;;;5089509;28;20035;-82
2022/03/19 08:56:32;;;;;;;21.60;11.20;;;14.40;99.90;;;;;;5092599;28;20142;-81
2022/03/19 08:58:59;;;;;;;21.42;11.57;;;14.20;99.90;;;;;;5093943;28;20035;-82
2022/03/19 09:01:24;;;;;;;25.83;13.30;;;14.40;99.90;;;;;;5094130;28;20024;-82
2022/03/19 09:03:50;;;;;;;28.55;12.07;;;14.90;99.90;;;;;;5093606;28;20020;-82
2022/03/19 09:06:17;;;;;;;20.90;11.25;;;14.90;99.90;;;;;;5091837;28;20111;-82
2022/03/19 09:08:43;;;;;;;27.58;10.68;;;15.10;99.90;;;;;;5086081;28;20513;-82
2022/03/19 09:11:09;;;;;;;29.45;11.52;;;14.90;99.90;;;;;;5092543;28;20020;-82
2022/03/19 09:13:36;;;;;;;22.65;11.13;;;14.60;99.90;;;;;;5094496;28;20051;-82
2022/03/19 09:16:03;;;;;;;18.98;10.27;;;15.00;99.90;;;;;;5087783;28;20501;-82
2022/03/19 09:18:29;;;;;;;17.52;10.70;;;15.60;99.90;;;;;;5093293;28;20050;-82
2022/03/19 09:20:54;;;;;;;21.02;11.45;;;15.70;99.80;;;;;;5082977;28;20020;-82
2022/03/19 09:23:21;;;;;;;24.15;11.48;;;15.00;99.90;;;;;;5092213;28;20452;-82
2022/03/19 09:25:47;;;;;;;17.55;10.48;;;14.60;99.90;;;;;;5093996;28;20052;-82
2022/03/19 09:28:13;;;;;;;16.83;10.77;;;14.70;99.90;;;;;;5093520;28;20067;-82
2022/03/19 09:30:38;;;;;;;19.55;12.18;;;15.20;99.90;;;;;;5084371;28;20020;-82
2022/03/19 09:33:04;;;;;;;18.25;10.52;;;14.90;99.80;;;;;;5086254;28;20059;-81
2022/03/19 09:35:30;;;;;;;16.73;10.23;;;15.10;99.40;;;;;;5072139;28;20029;-82
2022/03/19 09:37:55;;;;;;;22.08;10.32;;;15.50;99.90;;;;;;5088988;28;20497;-82
2022/03/19 09:40:22;;;;;;;23.42;11.60;;;15.80;99.10;;;;;;5092358;28;20057;-81
2022/03/19 09:42:53;;;;;;;25.23;11.95;;;15.40;99.20;;;;;;5089513;28;20103;-81
2022/03/19 09:45:20;;;;;;;24.67;10.77;;;15.10;99.00;;;;;;5084421;28;20017;-82
2022/03/19 09:47:47;;;;;;;22.15;10.98;;;15.20;98.60;;;;;;5076762;28;20020;-82
2022/03/19 09:50:13;;;;;;;23.90;9.65;;;14.90;99.10;;;;;;5083058;28;20032;-81
2022/03/19 09:52:41;;;;;;;22.42;10.25;;;14.60;98.80;;;;;;5093608;28;20096;-81
2022/03/19 09:55:08;;;;;;;18.35;10.18;;;14.80;99.50;;;;;;5092385;28;20028;-81
2022/03/19 09:57:35;;;;;;;24.42;10.70;;;15.50;98.70;;;;;;5082530;28;20062;-82
2022/03/19 10:00:00;;;;;;;16.30;10.05;;;14.90;98.90;;;;;;5092482;28;20020;-81
2022/03/19 10:02:26;;;;;;;20.63;11.35;;;14.70;99.40;;;;;;5092178;28;20194;-81
2022/03/19 10:04:57;;;;;;;15.93;10.02;;;15.20;99.70;;;;;;5092885;28;20405;-82
2022/03/19 10:10:11;;;;;;;22.63;10.13;;;14.90;99.10;;;;;;5092389;28;20039;-82
2022/03/19 10:12:39;;;;;;;18.33;10.73;;;15.10;99.90;;;;;;5092306;28;20028;-82
2022/03/19 10:15:09;;;;;;;25.55;11.02;;;15.30;98.40;;;;;;5091867;28;20067;-81
2022/03/19 10:17:39;;;;;;;19.10;10.35;;;14.90;98.80;;;;;;5089892;28;20020;-81
2022/03/19 10:20:07;;;;;;;25.27;10.88;;;15.10;98.60;;;;;;5090909;28;20028;-81
2022/03/19 10:22:33;;;;;;;17.38;9.85;;;15.20;99.30;;;;;;5093242;28;20027;-81
2022/03/19 10:25:04;;;;;;;18.17;10.30;;;15.20;99.30;;;;;;5081914;28;20035;-81
2022/03/19 10:27:34;;;;;;;19.02;10.30;;;14.60;98.10;;;;;;5089756;28;20031;-81
2022/03/19 10:30:07;;;;;;;19.90;10.27;;;15.00;99.50;;;;;;5092005;28;20040;-84
2022/03/19 10:32:34;;;;;;;22.55;11.32;;;14.60;99.10;;;;;;5090592;28;20024;-82
2022/03/19 10:35:01;;;;;;;19.65;10.15;;;14.50;98.20;;;;;;5090580;28;20031;-84
2022/03/19 10:37:36;;;;;;;17.58;9.52;;;14.90;99.70;;;;;;5092527;28;20020;-82
2022/03/19 10:40:03;;;;;;;17.77;9.32;;;14.60;98.70;;;;;;5091990;28;20016;-81
2022/03/19 10:42:42;;;;;;;21.27;10.35;;;14.40;98.60;;;;;;5091275;28;20052;-83
2022/03/19 10:45:09;;;;;;;19.83;10.85;;;14.40;98.60;;;;;;5091570;28;20042;-81
2022/03/19 10:47:47;;;;;;;17.23;10.50;;;14.30;98.50;;;;;;5091698;28;20031;-81
2022/03/19 10:50:23;;;;;;;22.67;9.95;;;14.40;98.50;;;;;;5081737;28;20063;-81
2022/03/19 10:52:51;;;;;;;16.15;9.23;;;14.80;98.20;;;;;;5091590;28;20102;-81
2022/03/19 10:55:17;;;;;;;23.15;10.48;;;14.60;98.00;;;;;;5078973;28;20040;-81
2022/03/19 10:57:44;;;;;;;17.38;8.98;;;14.70;98.40;;;;;;5085875;28;20114;-81
2022/03/19 11:00:11;;;;;;;17.23;10.60;;;15.30;98.10;;;;;;5091213;28;20028;-82
2022/03/19 11:02:45;;;;;;;17.95;10.30;;;15.60;97.20;;;;;;5082901;28;20013;-82
2022/03/19 11:05:12;;;;;;;17.02;9.85;;;15.70;97.90;;;;;;5090932;28;20028;-81
2022/03/19 11:07:42;;;;;;;21.58;11.60;;;15.50;97.40;;;;;;5090707;28;20028;-81
2022/03/19 11:10:09;;;;;;;17.52;9.88;;;15.40;97.10;;;;;;5090461;28;20101;-81
2022/03/19 11:12:40;;;;;;;17.80;9.45;;;15.20;96.90;;;;;;5090798;28;20024;-81
2022/03/19 11:15:09;;;;;;;20.65;10.38;;;15.40;97.10;;;;;;5085462;28;20032;-81
2022/03/19 11:17:39;;;;;;;19.70;10.35;;;15.40;96.90;;;;;;5088635;28;20028;-80
2022/03/19 11:20:08;;;;;;;19.73;11.05;;;15.40;96.70;;;;;;5089708;28;20115;-80
2022/03/19 11:22:47;;;;;;;19.30;10.32;;;15.30;96.10;;;;;;5091931;28;20077;-81
2022/03/19 11:25:44;;;;;;;19.20;10.40;;;15.20;96.90;;;;;;5082243;28;20035;-81
2022/03/19 11:28:12;;;;;;;17.50;10.60;;;15.60;97.00;;;;;;5077197;28;20126;-81
2022/03/19 11:30:41;;;;;;;14.55;9.52;;;15.70;97.00;;;;;;5090667;28;20029;-80
2022/03/19 11:33:18;;;;;;;18.55;10.40;;;15.70;96.40;;;;;;5084933;28;20130;-82
2022/03/19 11:36:02;;;;;;;17.33;9.82;;;15.60;96.90;;;;;;5089288;28;20150;-81
2022/03/19 11:38:30;;;;;;;16.00;9.75;;;15.50;97.10;;;;;;5090516;28;20051;-80
2022/03/19 11:40:57;;;;;;;17.38;10.25;;;15.60;96.90;;;;;;5089443;28;20021;-82
2022/03/19 11:43:31;;;;;;;27.20;10.88;;;15.90;97.30;;;;;;5091506;28;20074;-83
2022/03/19 11:46:10;;;;;;;17.45;9.57;;;15.60;97.10;;;;;;5090458;28;20077;-82
2022/03/19 11:48:51;;;;;;;23.27;10.50;;;15.60;97.00;;;;;;5089039;28;20028;-80
2022/03/19 11:51:38;;;;;;;15.57;9.32;;;15.60;96.40;;;;;;5083250;28;20023;-81
2022/03/19 11:54:17;;;;;;;19.63;10.50;;;15.60;96.70;;;;;;5088824;28;20032;-80
2022/03/19 11:56:42;;;;;;;23.00;11.13;;;15.70;97.60;;;;;;5090472;28;20035;-80
2022/03/19 11:59:15;;;;;;;19.48;11.32;;;15.30;96.10;;;;;;5089336;28;20044;-79
2022/03/19 12:01:58;;;;;;;19.58;9.50;;;15.10;96.90;;;;;;5090143;28;20067;-82
2022/03/19 12:04:25;;;;;;;19.20;10.13;;;15.70;97.20;;;;;;5084444;28;20032;-81
2022/03/19 12:06:58;;;;;;;21.13;10.32;;;15.50;97.80;;;;;;5090042;28;20107;-80
2022/03/19 12:09:39;;;;;;;20.33;10.80;;;15.40;96.10;;;;;;5089930;28;20034;-81
2022/03/19 12:12:13;;;;;;;21.37;10.17;;;15.50;97.00;;;;;;5088732;28;20123;-81
2022/03/19 12:14:40;;;;;;;14.88;9.98;;;15.50;97.30;;;;;;5090024;28;20047;-81
2022/03/19 12:17:20;;;;;;;20.30;10.25;;;15.60;96.40;;;;;;5089727;28;20529;-83
2022/03/19 12:19:59;;;;;;;20.08;9.98;;;16.00;97.50;;;;;;5089881;28;20046;-82
2022/03/19 12:22:41;;;;;;;15.45;10.32;;;15.60;96.00;;;;;;5072233;28;20063;-82
2022/03/19 12:25:09;;;;;;;18.10;9.95;;;15.30;96.50;;;;;;5079039;28;20036;-82
2022/03/19 12:27:36;;;;;;;18.00;9.85;;;15.30;98.40;;;;;;5088995;28;20056;-82
2022/03/19 12:30:03;;;;;;;22.30;11.02;;;15.30;96.60;;;;;;5088821;28;20039;-82
2022/03/19 12:32:43;;;;;;;23.30;10.25;;;15.20;97.20;;;;;;5083239;28;20533;-83
2022/03/19 12:35:08;;;;;;;16.02;9.20;;;15.60;97.80;;;;;;5087217;28;20048;-83
2022/03/19 12:37:49;;;;;;;20.33;10.38;;;15.50;96.40;;;;;;5090935;28;20035;-81
2022/03/19 12:40:20;;;;;;;21.13;10.13;;;15.50;96.00;;;;;;5088907;28;20073;-85
2022/03/19 12:42:59;;;;;;;19.25;10.02;;;15.60;96.90;;;;;;5089690;28;20025;-82
2022/03/19 12:45:38;;;;;;;20.10;11.50;;;15.30;96.10;;;;;;5089382;28;20051;-81
2022/03/19 12:48:12;;;;;;;20.92;10.32;;;14.90;97.00;;;;;;5081364;28;20089;-82
2022/03/19 12:50:38;;;;;;;15.77;10.65;;;15.20;97.60;;;;;;5081409;28;20516;-82
2022/03/19 12:53:05;;;;;;;20.92;10.88;;;15.80;97.20;;;;;;5088198;28;20055;-81
2022/03/19 12:55:31;;;;;;;17.20;9.88;;;15.40;97.20;;;;;;5090552;28;20552;-81
2022/03/19 12:57:57;;;;;;;24.20;12.40;;;15.20;97.10;;;;;;5089438;28;20103;-81
2022/03/19 13:00:25;;;;;;;18.05;10.57;;;15.10;96.70;;;;;;5089282;28;20024;-81
2022/03/19 13:02:56;;;;;;;24.33;11.10;;;15.20;96.30;;;;;;5089274;28;20020;-81
2022/03/19 13:05:23;;;;;;;19.48;11.73;;;15.10;96.20;;;;;;5068505;28;20060;-81
2022/03/19 13:08:05;;;;;;;23.05;11.20;;;15.10;97.10;;;;;;5086387;28;20073;-81
2022/03/19 13:10:41;;;;;;;16.27;10.05;;;15.40;97.50;;;;;;5090691;28;20035;-81
2022/03/19 13:13:07;;;;;;;21.67;10.13;;;15.10;97.20;;;;;;5088110;28;20414;-81
2022/03/19 13:15:33;;;;;;;16.10;10.85;;;15.20;97.80;;;;;;5089157;28;20020;-82
2022/03/19 13:17:59;;;;;;;18.02;11.20;;;15.10;98.30;;;;;;5084047;28;20553;-81
2022/03/19 13:20:26;;;;;;;22.50;12.23;;;15.00;96.90;;;;;;5084081;28;20025;-81
2022/03/19 13:23:02;;;;;;;20.60;11.40;;;15.00;97.30;;;;;;5086579;28;20092;-81
2022/03/19 13:25:31;;;;;;;17.45;10.20;;;15.00;97.90;;;;;;5090475;28;20043;-81